Ana Sayfa
METAR-TAF:

METAR-TAF

Havaalanları :

Miri, Malezya

Enlem: 04-20N, Boylam: 113-59E, yükseklik: 17 m

Güncel hava durumu gözlemi

Rapor saat 23:00 UTC de 26 dakika önce yapıldı.
Rüzgar değişken yönden 2 kt
Sıcaklık 24°C
Nem 100%
Basınç 1011 hPa
Görüş mesafesi 10 km veya daha fazla
1600 ft yükseklikte az bulutlu
15000 ft yükseklikte parçalı çok bulutlu

METAR: WBGR 122300Z VRB02KT 9999 FEW016 BKN150 24/24 Q1011

Saat: 07:26 (23:26 UTC)

Tahmin

Rapor saat 17:00 UTC de 6 saat ve 26 dakika önce yapıldı.
Ayın 12'si saat 18 UTC'den ayın 13'si saat 18 UTC'ye kadar geçerli Tahmin
Rüzgar doğu/güneydoğudan 5 kt
Görüş mesafesi 10 km veya daha fazla
1600 ft yükseklikte parçalı bulutlu
Geçici
ayın 12'si saat 20 UTC'den ayın 13'si saat 00 UTC'ye kadar
Görüş mesafesi: 4000 m
500 ft yükseklikte az bulutlu
1400 ft yükseklikte parçalı bulutlu
yağmur

TAF: WBGR 121700Z 1218/1318 12005KT 9999 SCT016 TEMPO 1220/1300 4000 RA FEW005 SCT014

4.000'den fazla havaalanı için hava durumu gözlemleri ve tahminleri (METAR ve TAF raporları).

Kullanılabilir istasyonlar harita üzerinde sarı ve kırmızı noktalarla gösterilir.

İstasyonun adını görmek için fareyi noktanın üzerinde gezdirin.

Sonrasında hava gözlem ve tahminlerini görmek için tıklayın.

Haritayı değiştirmek için: yaklaştırmak için siyah artı işaretli yeşil düğmeye ve uzaklaştırmak için de eksi işaretli düğmeye hızla tıklayın; bitişik haritalar için yeşil okları kullanın.


METAR-TAF: